sensor_id;sensor_type;location;lat;lon;timestamp;P1;durP1;ratioP1;P2;durP2;ratioP2
10450;SDS011;5273;51.290;6.918;2023-07-02T00:01:36;6.15;;;3.35;;
10450;SDS011;5273;51.290;6.918;2023-07-02T00:04:03;11.38;;;3.78;;
10450;SDS011;5273;51.290;6.918;2023-07-02T00:06:29;5.47;;;3.60;;
10450;SDS011;5273;51.290;6.918;2023-07-02T00:08:57;8.15;;;4.38;;
10450;SDS011;5273;51.290;6.918;2023-07-02T00:11:24;9.18;;;4.60;;
10450;SDS011;5273;51.290;6.918;2023-07-02T00:13:51;11.65;;;5.03;;
10450;SDS011;5273;51.290;6.918;2023-07-02T00:16:17;8.52;;;4.25;;
10450;SDS011;5273;51.290;6.918;2023-07-02T00:18:46;7.00;;;4.07;;
10450;SDS011;5273;51.290;6.918;2023-07-02T00:21:17;6.13;;;4.95;;
10450;SDS011;5273;51.290;6.918;2023-07-02T00:23:45;6.70;;;3.90;;
10450;SDS011;5273;51.290;6.918;2023-07-02T00:26:12;7.53;;;4.13;;
10450;SDS011;5273;51.290;6.918;2023-07-02T00:28:39;8.02;;;3.97;;
10450;SDS011;5273;51.290;6.918;2023-07-02T00:31:06;6.57;;;4.40;;
10450;SDS011;5273;51.290;6.918;2023-07-02T00:33:33;6.32;;;3.70;;
10450;SDS011;5273;51.290;6.918;2023-07-02T00:36:01;7.13;;;3.83;;
10450;SDS011;5273;51.290;6.918;2023-07-02T00:38:28;7.38;;;3.40;;
10450;SDS011;5273;51.290;6.918;2023-07-02T00:40:55;6.47;;;3.38;;
10450;SDS011;5273;51.290;6.918;2023-07-02T00:43:22;8.38;;;4.10;;
10450;SDS011;5273;51.290;6.918;2023-07-02T00:45:49;5.55;;;3.63;;
10450;SDS011;5273;51.290;6.918;2023-07-02T00:48:16;8.35;;;3.72;;
10450;SDS011;5273;51.290;6.918;2023-07-02T00:50:43;4.95;;;3.85;;
10450;SDS011;5273;51.290;6.918;2023-07-02T00:53:12;6.40;;;3.75;;
10450;SDS011;5273;51.290;6.918;2023-07-02T00:55:39;6.97;;;3.67;;
10450;SDS011;5273;51.290;6.918;2023-07-02T00:58:06;7.25;;;3.50;;
10450;SDS011;5273;51.290;6.918;2023-07-02T01:00:33;6.13;;;3.80;;
10450;SDS011;5273;51.290;6.918;2023-07-02T01:03:00;8.05;;;3.60;;
10450;SDS011;5273;51.290;6.918;2023-07-02T01:05:27;5.70;;;3.83;;
10450;SDS011;5273;51.290;6.918;2023-07-02T01:08:00;6.70;;;3.92;;
10450;SDS011;5273;51.290;6.918;2023-07-02T01:10:28;6.15;;;3.88;;
10450;SDS011;5273;51.290;6.918;2023-07-02T01:12:56;7.95;;;4.07;;
10450;SDS011;5273;51.290;6.918;2023-07-02T01:15:26;7.20;;;4.13;;
10450;SDS011;5273;51.290;6.918;2023-07-02T01:17:53;7.75;;;4.10;;
10450;SDS011;5273;51.290;6.918;2023-07-02T01:20:23;10.02;;;4.68;;
10450;SDS011;5273;51.290;6.918;2023-07-02T01:22:52;7.13;;;4.22;;
10450;SDS011;5273;51.290;6.918;2023-07-02T01:25:19;10.30;;;4.15;;
10450;SDS011;5273;51.290;6.918;2023-07-02T01:27:49;6.90;;;4.40;;
10450;SDS011;5273;51.290;6.918;2023-07-02T01:30:16;7.38;;;4.68;;
10450;SDS011;5273;51.290;6.918;2023-07-02T01:32:43;12.25;;;4.53;;
10450;SDS011;5273;51.290;6.918;2023-07-02T01:35:10;10.60;;;4.97;;
10450;SDS011;5273;51.290;6.918;2023-07-02T01:37:38;9.75;;;4.45;;
10450;SDS011;5273;51.290;6.918;2023-07-02T01:40:05;12.18;;;5.22;;
10450;SDS011;5273;51.290;6.918;2023-07-02T01:42:33;8.40;;;5.28;;
10450;SDS011;5273;51.290;6.918;2023-07-02T01:45:00;12.45;;;5.70;;
10450;SDS011;5273;51.290;6.918;2023-07-02T01:47:27;11.23;;;5.32;;
10450;SDS011;5273;51.290;6.918;2023-07-02T01:49:53;14.07;;;5.95;;
10450;SDS011;5273;51.290;6.918;2023-07-02T01:52:20;7.05;;;4.95;;
10450;SDS011;5273;51.290;6.918;2023-07-02T01:54:48;12.20;;;5.75;;
10450;SDS011;5273;51.290;6.918;2023-07-02T01:57:17;15.07;;;6.85;;
10450;SDS011;5273;51.290;6.918;2023-07-02T01:59:44;13.10;;;7.05;;
10450;SDS011;5273;51.290;6.918;2023-07-02T02:02:11;16.55;;;6.13;;
10450;SDS011;5273;51.290;6.918;2023-07-02T02:04:38;13.35;;;6.20;;
10450;SDS011;5273;51.290;6.918;2023-07-02T02:07:04;12.27;;;6.95;;
10450;SDS011;5273;51.290;6.918;2023-07-02T02:09:31;15.82;;;7.55;;
10450;SDS011;5273;51.290;6.918;2023-07-02T02:11:59;11.93;;;6.97;;
10450;SDS011;5273;51.290;6.918;2023-07-02T02:14:26;17.85;;;7.50;;
10450;SDS011;5273;51.290;6.918;2023-07-02T02:16:53;15.43;;;6.68;;
10450;SDS011;5273;51.290;6.918;2023-07-02T02:19:20;10.73;;;7.40;;
10450;SDS011;5273;51.290;6.918;2023-07-02T02:21:46;12.60;;;7.35;;
10450;SDS011;5273;51.290;6.918;2023-07-02T02:24:13;15.80;;;7.53;;
10450;SDS011;5273;51.290;6.918;2023-07-02T02:26:40;11.10;;;6.88;;
10450;SDS011;5273;51.290;6.918;2023-07-02T02:29:08;17.05;;;7.30;;
10450;SDS011;5273;51.290;6.918;2023-07-02T02:31:35;17.85;;;7.70;;
10450;SDS011;5273;51.290;6.918;2023-07-02T02:34:03;13.70;;;8.18;;
10450;SDS011;5273;51.290;6.918;2023-07-02T02:36:29;20.83;;;9.10;;
10450;SDS011;5273;51.290;6.918;2023-07-02T02:38:57;15.95;;;7.57;;
10450;SDS011;5273;51.290;6.918;2023-07-02T02:41:24;13.82;;;7.72;;
10450;SDS011;5273;51.290;6.918;2023-07-02T02:43:51;15.00;;;8.05;;
10450;SDS011;5273;51.290;6.918;2023-07-02T02:46:21;17.15;;;8.93;;
10450;SDS011;5273;51.290;6.918;2023-07-02T02:48:48;14.98;;;8.23;;
10450;SDS011;5273;51.290;6.918;2023-07-02T02:51:15;14.23;;;8.32;;
10450;SDS011;5273;51.290;6.918;2023-07-02T02:53:41;19.73;;;8.43;;
10450;SDS011;5273;51.290;6.918;2023-07-02T02:56:08;15.80;;;9.13;;
10450;SDS011;5273;51.290;6.918;2023-07-02T02:58:35;19.00;;;8.35;;
10450;SDS011;5273;51.290;6.918;2023-07-02T03:01:02;22.05;;;9.25;;
10450;SDS011;5273;51.290;6.918;2023-07-02T03:03:37;17.70;;;9.02;;
10450;SDS011;5273;51.290;6.918;2023-07-02T03:06:04;13.63;;;8.65;;
10450;SDS011;5273;51.290;6.918;2023-07-02T03:08:31;17.80;;;9.43;;
10450;SDS011;5273;51.290;6.918;2023-07-02T03:10:58;20.38;;;9.00;;
10450;SDS011;5273;51.290;6.918;2023-07-02T03:13:24;19.90;;;9.23;;
10450;SDS011;5273;51.290;6.918;2023-07-02T03:15:51;20.45;;;9.65;;
10450;SDS011;5273;51.290;6.918;2023-07-02T03:18:18;15.70;;;9.55;;
10450;SDS011;5273;51.290;6.918;2023-07-02T03:20:46;18.42;;;10.30;;
10450;SDS011;5273;51.290;6.918;2023-07-02T03:23:13;18.55;;;9.35;;
10450;SDS011;5273;51.290;6.918;2023-07-02T03:25:40;16.98;;;9.75;;
10450;SDS011;5273;51.290;6.918;2023-07-02T03:28:06;19.40;;;9.85;;
10450;SDS011;5273;51.290;6.918;2023-07-02T03:30:33;19.20;;;9.77;;
10450;SDS011;5273;51.290;6.918;2023-07-02T03:33:00;18.77;;;10.27;;
10450;SDS011;5273;51.290;6.918;2023-07-02T03:35:27;18.52;;;9.60;;
10450;SDS011;5273;51.290;6.918;2023-07-02T03:37:55;25.05;;;10.80;;
10450;SDS011;5273;51.290;6.918;2023-07-02T03:40:23;18.15;;;11.05;;
10450;SDS011;5273;51.290;6.918;2023-07-02T03:42:49;21.25;;;11.15;;
10450;SDS011;5273;51.290;6.918;2023-07-02T03:45:16;18.80;;;10.35;;
10450;SDS011;5273;51.290;6.918;2023-07-02T03:47:43;20.25;;;10.57;;
10450;SDS011;5273;51.290;6.918;2023-07-02T03:50:10;18.33;;;10.38;;
10450;SDS011;5273;51.290;6.918;2023-07-02T03:52:36;20.85;;;9.82;;
10450;SDS011;5273;51.290;6.918;2023-07-02T03:55:05;20.45;;;10.55;;
10450;SDS011;5273;51.290;6.918;2023-07-02T03:57:33;18.48;;;11.15;;
10450;SDS011;5273;51.290;6.918;2023-07-02T03:59:59;21.52;;;11.15;;
10450;SDS011;5273;51.290;6.918;2023-07-02T04:02:26;21.80;;;11.77;;
10450;SDS011;5273;51.290;6.918;2023-07-02T04:04:53;20.60;;;10.80;;
10450;SDS011;5273;51.290;6.918;2023-07-02T04:07:20;25.52;;;11.48;;
10450;SDS011;5273;51.290;6.918;2023-07-02T04:09:47;24.23;;;12.02;;
10450;SDS011;5273;51.290;6.918;2023-07-02T04:12:15;26.08;;;12.48;;
10450;SDS011;5273;51.290;6.918;2023-07-02T04:14:42;18.60;;;10.95;;
10450;SDS011;5273;51.290;6.918;2023-07-02T04:17:09;22.33;;;11.82;;
10450;SDS011;5273;51.290;6.918;2023-07-02T04:19:35;19.80;;;11.43;;
10450;SDS011;5273;51.290;6.918;2023-07-02T04:22:02;23.83;;;11.82;;
10450;SDS011;5273;51.290;6.918;2023-07-02T04:24:29;25.35;;;11.88;;
10450;SDS011;5273;51.290;6.918;2023-07-02T04:26:56;21.85;;;11.50;;
10450;SDS011;5273;51.290;6.918;2023-07-02T04:29:26;25.77;;;12.82;;
10450;SDS011;5273;51.290;6.918;2023-07-02T04:31:53;24.95;;;12.85;;
10450;SDS011;5273;51.290;6.918;2023-07-02T04:34:19;22.70;;;12.45;;
10450;SDS011;5273;51.290;6.918;2023-07-02T04:36:47;19.13;;;11.75;;
10450;SDS011;5273;51.290;6.918;2023-07-02T04:39:14;19.45;;;12.07;;
10450;SDS011;5273;51.290;6.918;2023-07-02T04:41:40;24.15;;;12.90;;
10450;SDS011;5273;51.290;6.918;2023-07-02T04:44:07;23.45;;;12.38;;
10450;SDS011;5273;51.290;6.918;2023-07-02T04:46:36;23.45;;;12.65;;
10450;SDS011;5273;51.290;6.918;2023-07-02T04:49:03;22.73;;;12.30;;
10450;SDS011;5273;51.290;6.918;2023-07-02T04:51:30;23.77;;;12.93;;
10450;SDS011;5273;51.290;6.918;2023-07-02T04:53:56;21.17;;;12.20;;
10450;SDS011;5273;51.290;6.918;2023-07-02T04:56:23;25.25;;;12.75;;
10450;SDS011;5273;51.290;6.918;2023-07-02T04:58:50;31.42;;;12.88;;
10450;SDS011;5273;51.290;6.918;2023-07-02T05:01:17;23.80;;;12.13;;
10450;SDS011;5273;51.290;6.918;2023-07-02T05:03:45;22.33;;;13.30;;
10450;SDS011;5273;51.290;6.918;2023-07-02T05:06:12;25.58;;;13.23;;
10450;SDS011;5273;51.290;6.918;2023-07-02T05:08:39;23.08;;;12.48;;
10450;SDS011;5273;51.290;6.918;2023-07-02T05:11:05;23.38;;;12.90;;
10450;SDS011;5273;51.290;6.918;2023-07-02T05:13:32;21.17;;;12.65;;
10450;SDS011;5273;51.290;6.918;2023-07-02T05:15:59;25.80;;;13.45;;
10450;SDS011;5273;51.290;6.918;2023-07-02T05:18:26;23.23;;;12.82;;
10450;SDS011;5273;51.290;6.918;2023-07-02T05:20:54;22.52;;;13.27;;
10450;SDS011;5273;51.290;6.918;2023-07-02T05:23:21;25.02;;;14.15;;
10450;SDS011;5273;51.290;6.918;2023-07-02T05:25:47;22.52;;;12.98;;
10450;SDS011;5273;51.290;6.918;2023-07-02T05:28:14;21.73;;;14.70;;
10450;SDS011;5273;51.290;6.918;2023-07-02T05:30:41;25.63;;;14.07;;
10450;SDS011;5273;51.290;6.918;2023-07-02T05:33:08;20.50;;;13.02;;
10450;SDS011;5273;51.290;6.918;2023-07-02T05:35:34;22.25;;;12.98;;
10450;SDS011;5273;51.290;6.918;2023-07-02T05:38:03;20.75;;;13.23;;
10450;SDS011;5273;51.290;6.918;2023-07-02T05:40:29;26.33;;;15.48;;
10450;SDS011;5273;51.290;6.918;2023-07-02T05:42:56;22.25;;;13.40;;
10450;SDS011;5273;51.290;6.918;2023-07-02T05:45:23;24.67;;;14.65;;
10450;SDS011;5273;51.290;6.918;2023-07-02T05:47:52;26.73;;;13.60;;
10450;SDS011;5273;51.290;6.918;2023-07-02T05:50:19;25.67;;;13.30;;
10450;SDS011;5273;51.290;6.918;2023-07-02T05:52:46;23.70;;;13.00;;
10450;SDS011;5273;51.290;6.918;2023-07-02T05:55:14;26.95;;;14.35;;
10450;SDS011;5273;51.290;6.918;2023-07-02T05:57:41;23.73;;;13.27;;
10450;SDS011;5273;51.290;6.918;2023-07-02T06:00:08;22.77;;;13.25;;
10450;SDS011;5273;51.290;6.918;2023-07-02T06:02:35;23.50;;;13.18;;
10450;SDS011;5273;51.290;6.918;2023-07-02T06:05:02;28.15;;;14.43;;
10450;SDS011;5273;51.290;6.918;2023-07-02T06:07:29;22.52;;;12.93;;
10450;SDS011;5273;51.290;6.918;2023-07-02T06:09:56;24.67;;;13.00;;
10450;SDS011;5273;51.290;6.918;2023-07-02T06:12:24;24.67;;;13.20;;
10450;SDS011;5273;51.290;6.918;2023-07-02T06:14:51;22.65;;;12.13;;
10450;SDS011;5273;51.290;6.918;2023-07-02T06:17:18;23.33;;;13.48;;
10450;SDS011;5273;51.290;6.918;2023-07-02T06:19:45;24.33;;;12.80;;
10450;SDS011;5273;51.290;6.918;2023-07-02T06:22:12;22.13;;;13.15;;
10450;SDS011;5273;51.290;6.918;2023-07-02T06:24:39;25.30;;;12.60;;
10450;SDS011;5273;51.290;6.918;2023-07-02T06:27:06;26.05;;;13.20;;
10450;SDS011;5273;51.290;6.918;2023-07-02T06:29:34;19.30;;;12.35;;
10450;SDS011;5273;51.290;6.918;2023-07-02T06:32:01;23.25;;;12.57;;
10450;SDS011;5273;51.290;6.918;2023-07-02T06:34:27;21.55;;;11.82;;
10450;SDS011;5273;51.290;6.918;2023-07-02T06:36:54;25.77;;;12.82;;
10450;SDS011;5273;51.290;6.918;2023-07-02T06:39:21;18.33;;;11.77;;
10450;SDS011;5273;51.290;6.918;2023-07-02T06:41:48;21.75;;;11.98;;
10450;SDS011;5273;51.290;6.918;2023-07-02T06:44:15;18.58;;;12.43;;
10450;SDS011;5273;51.290;6.918;2023-07-02T06:46:44;20.73;;;12.23;;
10450;SDS011;5273;51.290;6.918;2023-07-02T06:49:12;16.73;;;11.02;;
10450;SDS011;5273;51.290;6.918;2023-07-02T06:51:38;18.38;;;11.07;;
10450;SDS011;5273;51.290;6.918;2023-07-02T06:54:06;18.67;;;10.82;;
10450;SDS011;5273;51.290;6.918;2023-07-02T06:56:33;22.55;;;10.85;;
10450;SDS011;5273;51.290;6.918;2023-07-02T06:59:00;16.58;;;11.18;;
10450;SDS011;5273;51.290;6.918;2023-07-02T07:01:27;15.45;;;10.80;;
10450;SDS011;5273;51.290;6.918;2023-07-02T07:03:55;19.30;;;10.95;;
10450;SDS011;5273;51.290;6.918;2023-07-02T07:06:22;20.27;;;11.30;;
10450;SDS011;5273;51.290;6.918;2023-07-02T07:08:49;18.20;;;10.52;;
10450;SDS011;5273;51.290;6.918;2023-07-02T07:11:16;17.95;;;11.32;;
10450;SDS011;5273;51.290;6.918;2023-07-02T07:13:42;16.13;;;10.85;;
10450;SDS011;5273;51.290;6.918;2023-07-02T07:16:09;19.00;;;11.68;;
10450;SDS011;5273;51.290;6.918;2023-07-02T07:18:37;16.33;;;10.05;;
10450;SDS011;5273;51.290;6.918;2023-07-02T07:21:05;18.10;;;10.02;;
10450;SDS011;5273;51.290;6.918;2023-07-02T07:23:32;17.15;;;9.90;;
10450;SDS011;5273;51.290;6.918;2023-07-02T07:25:58;15.43;;;9.82;;
10450;SDS011;5273;51.290;6.918;2023-07-02T07:28:25;17.05;;;10.85;;
10450;SDS011;5273;51.290;6.918;2023-07-02T07:30:52;15.70;;;10.88;;
10450;SDS011;5273;51.290;6.918;2023-07-02T07:33:19;14.38;;;9.52;;
10450;SDS011;5273;51.290;6.918;2023-07-02T07:35:46;16.98;;;10.80;;
10450;SDS011;5273;51.290;6.918;2023-07-02T07:38:14;16.75;;;10.75;;
10450;SDS011;5273;51.290;6.918;2023-07-02T07:40:41;16.65;;;11.38;;
10450;SDS011;5273;51.290;6.918;2023-07-02T07:43:08;15.05;;;10.57;;
10450;SDS011;5273;51.290;6.918;2023-07-02T07:45:35;17.00;;;10.82;;
10450;SDS011;5273;51.290;6.918;2023-07-02T07:48:02;15.73;;;10.77;;
10450;SDS011;5273;51.290;6.918;2023-07-02T07:50:30;14.60;;;9.32;;
10450;SDS011;5273;51.290;6.918;2023-07-02T07:52:58;17.05;;;9.70;;
10450;SDS011;5273;51.290;6.918;2023-07-02T07:55:27;16.75;;;9.93;;
10450;SDS011;5273;51.290;6.918;2023-07-02T07:57:54;17.55;;;9.95;;
10450;SDS011;5273;51.290;6.918;2023-07-02T08:00:21;19.02;;;11.07;;
10450;SDS011;5273;51.290;6.918;2023-07-02T08:02:49;19.67;;;10.68;;
10450;SDS011;5273;51.290;6.918;2023-07-02T08:05:17;20.10;;;10.48;;
10450;SDS011;5273;51.290;6.918;2023-07-02T08:07:44;20.83;;;10.63;;
10450;SDS011;5273;51.290;6.918;2023-07-02T08:10:10;16.25;;;10.30;;
10450;SDS011;5273;51.290;6.918;2023-07-02T08:12:39;20.25;;;10.50;;
10450;SDS011;5273;51.290;6.918;2023-07-02T08:15:06;19.65;;;10.25;;
10450;SDS011;5273;51.290;6.918;2023-07-02T08:17:33;19.02;;;9.75;;
10450;SDS011;5273;51.290;6.918;2023-07-02T08:20:01;15.68;;;8.70;;
10450;SDS011;5273;51.290;6.918;2023-07-02T08:22:29;17.77;;;8.75;;
10450;SDS011;5273;51.290;6.918;2023-07-02T08:24:56;22.73;;;9.85;;
10450;SDS011;5273;51.290;6.918;2023-07-02T08:27:23;15.52;;;8.20;;
10450;SDS011;5273;51.290;6.918;2023-07-02T08:29:52;17.38;;;8.90;;
10450;SDS011;5273;51.290;6.918;2023-07-02T08:32:19;20.60;;;9.40;;
10450;SDS011;5273;51.290;6.918;2023-07-02T08:34:45;17.70;;;9.77;;
10450;SDS011;5273;51.290;6.918;2023-07-02T08:37:12;17.77;;;9.38;;
10450;SDS011;5273;51.290;6.918;2023-07-02T08:39:39;17.05;;;9.63;;
10450;SDS011;5273;51.290;6.918;2023-07-02T08:42:06;22.85;;;9.73;;
10450;SDS011;5273;51.290;6.918;2023-07-02T08:44:33;20.13;;;10.13;;
10450;SDS011;5273;51.290;6.918;2023-07-02T08:47:02;20.08;;;10.95;;
10450;SDS011;5273;51.290;6.918;2023-07-02T08:49:31;19.90;;;10.43;;
10450;SDS011;5273;51.290;6.918;2023-07-02T08:51:58;15.07;;;9.20;;
10450;SDS011;5273;51.290;6.918;2023-07-02T08:54:25;15.93;;;9.18;;
10450;SDS011;5273;51.290;6.918;2023-07-02T08:56:52;16.75;;;9.25;;
10450;SDS011;5273;51.290;6.918;2023-07-02T08:59:19;21.48;;;10.25;;
10450;SDS011;5273;51.290;6.918;2023-07-02T09:01:46;19.35;;;10.68;;
10450;SDS011;5273;51.290;6.918;2023-07-02T09:04:18;19.58;;;9.73;;
10450;SDS011;5273;51.290;6.918;2023-07-02T09:06:46;14.90;;;9.18;;
10450;SDS011;5273;51.290;6.918;2023-07-02T09:09:13;19.63;;;10.15;;
10450;SDS011;5273;51.290;6.918;2023-07-02T09:11:47;16.02;;;9.18;;
10450;SDS011;5273;51.290;6.918;2023-07-02T09:14:23;18.50;;;9.45;;
10450;SDS011;5273;51.290;6.918;2023-07-02T09:17:00;15.68;;;8.63;;
10450;SDS011;5273;51.290;6.918;2023-07-02T09:19:33;15.82;;;9.13;;
10450;SDS011;5273;51.290;6.918;2023-07-02T09:22:00;16.98;;;9.98;;
10450;SDS011;5273;51.290;6.918;2023-07-02T09:24:27;16.58;;;10.02;;
10450;SDS011;5273;51.290;6.918;2023-07-02T09:26:55;17.50;;;8.98;;
10450;SDS011;5273;51.290;6.918;2023-07-02T09:29:24;16.60;;;9.10;;
10450;SDS011;5273;51.290;6.918;2023-07-02T09:31:54;15.77;;;9.82;;
10450;SDS011;5273;51.290;6.918;2023-07-02T09:34:26;14.95;;;8.63;;
10450;SDS011;5273;51.290;6.918;2023-07-02T09:36:56;14.07;;;8.20;;
10450;SDS011;5273;51.290;6.918;2023-07-02T09:39:25;18.27;;;8.93;;
10450;SDS011;5273;51.290;6.918;2023-07-02T09:41:52;17.38;;;8.18;;
10450;SDS011;5273;51.290;6.918;2023-07-02T09:44:21;16.35;;;8.80;;
10450;SDS011;5273;51.290;6.918;2023-07-02T09:46:49;13.50;;;7.93;;
10450;SDS011;5273;51.290;6.918;2023-07-02T09:49:22;18.25;;;7.97;;
10450;SDS011;5273;51.290;6.918;2023-07-02T09:51:50;17.73;;;8.45;;
10450;SDS011;5273;51.290;6.918;2023-07-02T09:54:19;15.18;;;8.40;;
10450;SDS011;5273;51.290;6.918;2023-07-02T09:56:46;15.95;;;9.32;;
10450;SDS011;5273;51.290;6.918;2023-07-02T09:59:13;16.58;;;10.02;;
10450;SDS011;5273;51.290;6.918;2023-07-02T10:01:40;16.27;;;9.63;;
10450;SDS011;5273;51.290;6.918;2023-07-02T10:04:11;15.73;;;9.27;;
10450;SDS011;5273;51.290;6.918;2023-07-02T10:06:45;18.17;;;9.52;;
10450;SDS011;5273;51.290;6.918;2023-07-02T10:09:13;18.50;;;10.07;;
10450;SDS011;5273;51.290;6.918;2023-07-02T10:11:42;17.08;;;10.05;;
10450;SDS011;5273;51.290;6.918;2023-07-02T10:14:09;17.92;;;10.30;;
10450;SDS011;5273;51.290;6.918;2023-07-02T10:16:49;18.17;;;9.93;;
10450;SDS011;5273;51.290;6.918;2023-07-02T10:19:17;21.10;;;9.75;;
10450;SDS011;5273;51.290;6.918;2023-07-02T10:21:43;20.08;;;9.70;;
10450;SDS011;5273;51.290;6.918;2023-07-02T10:24:12;13.93;;;9.07;;
10450;SDS011;5273;51.290;6.918;2023-07-02T10:26:52;14.48;;;8.20;;
10450;SDS011;5273;51.290;6.918;2023-07-02T10:29:22;16.42;;;8.55;;
10450;SDS011;5273;51.290;6.918;2023-07-02T10:31:50;12.98;;;8.45;;
10450;SDS011;5273;51.290;6.918;2023-07-02T10:34:27;19.25;;;8.32;;
10450;SDS011;5273;51.290;6.918;2023-07-02T10:36:55;15.43;;;8.82;;
10450;SDS011;5273;51.290;6.918;2023-07-02T10:39:23;17.70;;;8.88;;
10450;SDS011;5273;51.290;6.918;2023-07-02T10:41:51;15.82;;;9.15;;
10450;SDS011;5273;51.290;6.918;2023-07-02T10:44:18;15.65;;;7.40;;
10450;SDS011;5273;51.290;6.918;2023-07-02T10:46:45;11.93;;;7.88;;
10450;SDS011;5273;51.290;6.918;2023-07-02T10:49:12;15.27;;;8.05;;
10450;SDS011;5273;51.290;6.918;2023-07-02T10:51:39;16.60;;;8.18;;
10450;SDS011;5273;51.290;6.918;2023-07-02T10:54:06;13.52;;;7.32;;
10450;SDS011;5273;51.290;6.918;2023-07-02T10:56:33;17.17;;;7.57;;
10450;SDS011;5273;51.290;6.918;2023-07-02T10:59:02;14.32;;;7.20;;
10450;SDS011;5273;51.290;6.918;2023-07-02T11:01:30;13.43;;;7.18;;
10450;SDS011;5273;51.290;6.918;2023-07-02T11:03:58;11.57;;;6.72;;
10450;SDS011;5273;51.290;6.918;2023-07-02T11:06:26;13.38;;;6.03;;
10450;SDS011;5273;51.290;6.918;2023-07-02T11:08:54;11.40;;;6.00;;
10450;SDS011;5273;51.290;6.918;2023-07-02T11:11:21;13.23;;;6.57;;
10450;SDS011;5273;51.290;6.918;2023-07-02T11:13:49;12.05;;;6.38;;
10450;SDS011;5273;51.290;6.918;2023-07-02T11:16:19;16.25;;;7.25;;
10450;SDS011;5273;51.290;6.918;2023-07-02T11:18:51;12.85;;;6.05;;
10450;SDS011;5273;51.290;6.918;2023-07-02T11:21:31;11.52;;;6.05;;
10450;SDS011;5273;51.290;6.918;2023-07-02T11:24:01;13.35;;;6.10;;
10450;SDS011;5273;51.290;6.918;2023-07-02T11:26:34;12.85;;;7.20;;
10450;SDS011;5273;51.290;6.918;2023-07-02T11:29:01;8.50;;;5.97;;
10450;SDS011;5273;51.290;6.918;2023-07-02T11:31:29;11.65;;;6.38;;
10450;SDS011;5273;51.290;6.918;2023-07-02T11:33:56;9.38;;;6.15;;
10450;SDS011;5273;51.290;6.918;2023-07-02T11:36:23;12.98;;;6.50;;
10450;SDS011;5273;51.290;6.918;2023-07-02T11:38:51;11.27;;;5.72;;
10450;SDS011;5273;51.290;6.918;2023-07-02T11:41:18;11.38;;;6.13;;
10450;SDS011;5273;51.290;6.918;2023-07-02T11:43:46;11.63;;;5.93;;
10450;SDS011;5273;51.290;6.918;2023-07-02T11:46:13;12.45;;;6.03;;
10450;SDS011;5273;51.290;6.918;2023-07-02T11:48:41;12.73;;;6.38;;
10450;SDS011;5273;51.290;6.918;2023-07-02T11:51:08;10.32;;;5.57;;
10450;SDS011;5273;51.290;6.918;2023-07-02T11:53:35;11.60;;;5.95;;
10450;SDS011;5273;51.290;6.918;2023-07-02T11:56:02;10.70;;;5.82;;
10450;SDS011;5273;51.290;6.918;2023-07-02T11:58:29;12.88;;;6.22;;
10450;SDS011;5273;51.290;6.918;2023-07-02T12:00:56;12.10;;;6.43;;
10450;SDS011;5273;51.290;6.918;2023-07-02T12:03:22;16.70;;;6.45;;
10450;SDS011;5273;51.290;6.918;2023-07-02T12:05:51;10.38;;;5.88;;
10450;SDS011;5273;51.290;6.918;2023-07-02T12:08:17;11.30;;;6.38;;
10450;SDS011;5273;51.290;6.918;2023-07-02T12:10:44;9.73;;;5.65;;
10450;SDS011;5273;51.290;6.918;2023-07-02T12:13:11;12.10;;;6.47;;
10450;SDS011;5273;51.290;6.918;2023-07-02T12:15:38;11.30;;;6.50;;
10450;SDS011;5273;51.290;6.918;2023-07-02T12:18:05;12.57;;;6.65;;
10450;SDS011;5273;51.290;6.918;2023-07-02T12:20:32;11.43;;;5.53;;
10450;SDS011;5273;51.290;6.918;2023-07-02T12:23:00;12.27;;;6.55;;
10450;SDS011;5273;51.290;6.918;2023-07-02T12:25:27;11.00;;;6.47;;
10450;SDS011;5273;51.290;6.918;2023-07-02T12:27:54;11.98;;;6.50;;
10450;SDS011;5273;51.290;6.918;2023-07-02T12:30:21;10.40;;;6.93;;
10450;SDS011;5273;51.290;6.918;2023-07-02T12:32:47;12.88;;;7.20;;
10450;SDS011;5273;51.290;6.918;2023-07-02T12:35:14;12.23;;;7.20;;
10450;SDS011;5273;51.290;6.918;2023-07-02T12:37:44;11.07;;;7.20;;
10450;SDS011;5273;51.290;6.918;2023-07-02T12:40:13;13.38;;;7.18;;
10450;SDS011;5273;51.290;6.918;2023-07-02T12:42:41;9.73;;;6.68;;
10450;SDS011;5273;51.290;6.918;2023-07-02T12:45:08;11.98;;;6.60;;
10450;SDS011;5273;51.290;6.918;2023-07-02T12:47:36;13.15;;;6.63;;
10450;SDS011;5273;51.290;6.918;2023-07-02T12:50:04;11.10;;;6.78;;
10450;SDS011;5273;51.290;6.918;2023-07-02T12:52:31;12.50;;;6.70;;
10450;SDS011;5273;51.290;6.918;2023-07-02T12:54:58;11.95;;;6.65;;
10450;SDS011;5273;51.290;6.918;2023-07-02T12:57:26;12.02;;;6.82;;
10450;SDS011;5273;51.290;6.918;2023-07-02T12:59:53;13.68;;;6.75;;
10450;SDS011;5273;51.290;6.918;2023-07-02T13:02:20;12.07;;;6.07;;
10450;SDS011;5273;51.290;6.918;2023-07-02T13:04:48;13.00;;;6.93;;
10450;SDS011;5273;51.290;6.918;2023-07-02T13:07:14;12.00;;;6.40;;
10450;SDS011;5273;51.290;6.918;2023-07-02T13:09:42;13.65;;;6.00;;
10450;SDS011;5273;51.290;6.918;2023-07-02T13:12:09;10.60;;;6.30;;
10450;SDS011;5273;51.290;6.918;2023-07-02T13:14:37;11.57;;;5.95;;
10450;SDS011;5273;51.290;6.918;2023-07-02T13:17:04;10.40;;;6.53;;
10450;SDS011;5273;51.290;6.918;2023-07-02T13:19:31;14.20;;;6.90;;
10450;SDS011;5273;51.290;6.918;2023-07-02T13:21:59;16.35;;;6.47;;
10450;SDS011;5273;51.290;6.918;2023-07-02T13:24:28;10.88;;;6.57;;
10450;SDS011;5273;51.290;6.918;2023-07-02T13:26:59;13.35;;;6.50;;
10450;SDS011;5273;51.290;6.918;2023-07-02T13:29:26;11.45;;;6.15;;
10450;SDS011;5273;51.290;6.918;2023-07-02T13:31:54;14.07;;;6.53;;
10450;SDS011;5273;51.290;6.918;2023-07-02T13:34:21;13.50;;;6.57;;
10450;SDS011;5273;51.290;6.918;2023-07-02T13:36:48;13.07;;;6.68;;
10450;SDS011;5273;51.290;6.918;2023-07-02T13:39:15;12.75;;;6.47;;
10450;SDS011;5273;51.290;6.918;2023-07-02T13:41:42;13.68;;;6.85;;
10450;SDS011;5273;51.290;6.918;2023-07-02T13:44:08;10.30;;;6.70;;
10450;SDS011;5273;51.290;6.918;2023-07-02T13:46:35;13.45;;;6.63;;
10450;SDS011;5273;51.290;6.918;2023-07-02T13:49:03;12.75;;;7.07;;
10450;SDS011;5273;51.290;6.918;2023-07-02T13:51:30;13.57;;;6.85;;
10450;SDS011;5273;51.290;6.918;2023-07-02T13:53:57;13.48;;;7.07;;
10450;SDS011;5273;51.290;6.918;2023-07-02T13:56:24;15.18;;;7.30;;
10450;SDS011;5273;51.290;6.918;2023-07-02T13:59:04;11.63;;;6.55;;
10450;SDS011;5273;51.290;6.918;2023-07-02T14:01:31;12.77;;;6.75;;
10450;SDS011;5273;51.290;6.918;2023-07-02T14:03:59;15.93;;;7.55;;
10450;SDS011;5273;51.290;6.918;2023-07-02T14:06:26;12.95;;;6.82;;
10450;SDS011;5273;51.290;6.918;2023-07-02T14:08:53;15.27;;;7.13;;
10450;SDS011;5273;51.290;6.918;2023-07-02T14:11:20;10.75;;;6.75;;
10450;SDS011;5273;51.290;6.918;2023-07-02T14:13:48;15.80;;;6.80;;
10450;SDS011;5273;51.290;6.918;2023-07-02T14:16:16;12.43;;;6.45;;
10450;SDS011;5273;51.290;6.918;2023-07-02T14:18:43;11.63;;;6.70;;
10450;SDS011;5273;51.290;6.918;2023-07-02T14:21:10;14.13;;;7.07;;
10450;SDS011;5273;51.290;6.918;2023-07-02T14:23:37;11.82;;;6.82;;
10450;SDS011;5273;51.290;6.918;2023-07-02T14:26:04;14.60;;;8.32;;
10450;SDS011;5273;51.290;6.918;2023-07-02T14:28:31;16.73;;;7.72;;
10450;SDS011;5273;51.290;6.918;2023-07-02T14:30:59;13.80;;;7.57;;
10450;SDS011;5273;51.290;6.918;2023-07-02T14:33:28;15.35;;;7.05;;
10450;SDS011;5273;51.290;6.918;2023-07-02T14:35:56;16.60;;;7.85;;
10450;SDS011;5273;51.290;6.918;2023-07-02T14:38:23;11.93;;;7.60;;
10450;SDS011;5273;51.290;6.918;2023-07-02T14:40:50;13.13;;;7.22;;
10450;SDS011;5273;51.290;6.918;2023-07-02T14:43:19;14.23;;;7.30;;
10450;SDS011;5273;51.290;6.918;2023-07-02T14:45:47;14.73;;;7.50;;
10450;SDS011;5273;51.290;6.918;2023-07-02T14:48:15;15.30;;;8.40;;